Bruno Silva

Recruteur - Ceará
9 Déc 2027
Jeudi
Processus

Personnalité

Adaptabilité (8) Ambition (12) Controverse (10) Loyauté (6) Pression (18) Professionnalisme (14) Sportivité (10) Tempérament (5)

Profil

Style d'entraînement Démocratique
Diplôme National A
Détermination 12
Gestion des joueurs 8
Motivation 4
Discipline 11
Satisfaction professionnelle
100%
Fatigue
0%
Rôle Recruteur
Salaire 91.9K p/s
Contrat 14.03.2028

Performance

Comportement Bon
Efficacité de l'entraînement
48%
Développement des joueurs
35%
Prévention des blessures
65%
Mise en place tactique
35%

Événements récents

A participé à une réunion de recrutement maintenant
A participé à une réunion de recrutement 7j
A recommandé une cible de transfert 7j
A participé à une réunion de recrutement 7j
A participé à une réunion de recrutement 7j
A participé à une réunion de recrutement 14j
A recommandé une cible de transfert 14j
A participé à une réunion de recrutement 14j

Suivi en cours

226
Joueur Club Statut Capacité Confiance Observé Dernière observation Dernier vote
Gonçalo Oliveira Benfica Actif 127 / 130 40% 2 24.10.2027 -
Kauã Moraes Cruzeiro Actif 135 / 135 40% 3 24.10.2027 -
Giovanni Leoni Bradford City Actif 150 / 143 40% 1 24.10.2027 -
Junior Machis Atletico Venezuela Actif 82 / 79 40% 2 22.10.2027 -
Eduardo Felicíssimo Sporting CP Actif 126 / 124 40% 2 22.10.2027 -
Harbor Miller LA Galaxy Actif 91 / 103 40% 1 22.10.2027 -
Bruno Ribeiro Cortulua Actif 74 / 89 40% 2 21.10.2027 -
Tiago Gordillo San Miguel Actif 86 / 97 40% 2 21.10.2027 -
David Damboama El-Kanemi Warriors Actif 92 / 89 40% 1 19.10.2027 -
Hosea Michael Remo Stars Actif 82 / 95 40% 1 19.10.2027 -
Ricky Atletico Venezuela Actif 90 / 103 40% 1 19.10.2027 -
Bernardo Lima Porto Actif 115 / 122 40% 2 16.10.2027 -
Mikkel Hope Haugesund Actif 108 / 110 40% 2 16.10.2027 -
Caleb Yirenkyi Coventry City Actif 138 / 151 40% 2 14.10.2027 -
Christos Mouzakitis Hull City Actif 128 / 141 40% 1 14.10.2027 -
Martim Cunha Porto Actif 100 / 113 40% 5 09.10.2027 -
Joel Ezra Enyimba Actif 106 / 91 40% 1 09.10.2027 -
Hervin Goyes Deportivo Pasto Actif 113 / 117 40% 1 09.10.2027 -
Tiago Freitas Benfica Actif 125 / 130 40% 3 08.10.2027 -
Daniel Costa Sporting CP Actif 98 / 103 40% 3 08.10.2027 -
Ayden Heaven Luton Town Actif 152 / 155 40% 1 08.10.2027 -
Souza Tottenham Actif 117 / 126 40% 1 06.10.2027 -
Marvelous Freedom Ikorodu City Actif 102 / 100 40% 1 06.10.2027 -
Godwin Oham Warri Wolves Actif 77 / 87 40% 2 04.10.2027 -
Juan Morán Godoy Cruz Actif 107 / 108 40% 1 04.10.2027 -
Colin Guske Orlando City Actif 93 / 103 40% 1 04.10.2027 -
Chibueze Oputa Rangers International Actif 97 / 88 40% 1 15.09.2027 -
João Teixeira Porto Actif 117 / 127 40% 1 15.09.2027 -
André Lucas Sampaio Correa Actif 88 / 94 40% 2 12.09.2027 -
Bahia Criciuma Actif 112 / 118 40% 1 12.09.2027 -
Matías Canedo Rampla Juniors Actif 89 / 93 40% 1 12.09.2027 -
José Correa Deportivo Tachira Actif 92 / 96 40% 1 11.09.2027 -
Óscar Hinojosa Metropolitanos Actif 84 / 83 40% 1 11.09.2027 -
Martim Ferreira Benfica Actif 95 / 108 40% 1 09.09.2027 -
Chris Rigg Sunderland Actif 137 / 135 40% 1 09.09.2027 -
Jackson Imbiakha Muranga Seal Actif 79 / 89 40% 1 08.09.2027 -
Riquelme Grêmio Actif 99 / 111 65% 1 21.06.2027 Approuver
Mfundo Vilakazi Kaizer Chiefs Actif 117 / 123 40% 2 31.05.2027 -
Gal Kranjčič Farense Actif 97 / 105 40% 2 31.05.2027 -
Gustavo Ferreira Benfica Actif 90 / 88 40% 3 29.05.2027 -
Mateus Mané Manchester United Actif 132 / 138 40% 5 29.05.2027 Observer
Jesús Rodríguez Como Actif 147 / 143 40% 2 28.05.2027 -
Riley Owen Trento Actif 91 / 111 40% 2 28.05.2027 -
Ilyas Ansah Hull City Actif 121 / 136 40% 2 28.05.2027 -
Giorgi Chakvetadze Watford Actif 120 / 127 40% 1 28.05.2027 -
Lwanda Mbanjwa Maritzburg United Actif 82 / 101 40% 3 26.05.2027 -
Tiziano Dornell Danubio Actif 122 / 124 40% 2 26.05.2027 -
Adama Goïta Remo Stars Actif 95 / 98 40% 2 26.05.2027 -
Milan van Ewijk Mansfield Town Actif 122 / 134 40% 1 26.05.2027 -
Alagie Wally Veres Actif 91 / 88 40% 2 24.05.2027 -
Sidiki Chérif Coventry City Actif 117 / 131 40% 1 24.05.2027 -
Rayan Bournemouth Actif 129 / 143 40% 6 23.05.2027 -
Luke Baartman ES Mostaganem Actif 107 / 105 40% 4 23.05.2027 -
Markus Jensen Nacional Actif 113 / 106 40% 3 23.05.2027 -
Derensili Sanches Fernandes Huddersfield Town Actif 125 / 126 40% 2 22.05.2027 -
Kasey McAteer Ipswich Town Actif 130 / 130 40% 1 22.05.2027 -
Jack Rudoni Coventry City Actif 131 / 131 40% 1 21.05.2027 -
Ethan Williams Peterborough United Actif 119 / 124 40% 1 20.05.2027 -
Jason Knight Bristol City Actif 129 / 134 40% 1 20.05.2027 -
David Turnbull Cardiff City Actif 114 / 116 40% 1 19.05.2027 -
Michael Noumon Heart of Lions Actif 86 / 93 40% 4 18.05.2027 -
Shea Charles Southampton Actif 133 / 139 40% 1 18.05.2027 -
Finn Azaz Southampton Actif 123 / 126 40% 1 18.05.2027 -
Matvii Ponomarenko Dynamo Kyiv Actif 115 / 119 40% 5 17.05.2027 -
Florentino Luís Ipswich Town Actif 148 / 143 40% 1 15.05.2027 -
Million Manhoef Stoke City Actif 133 / 134 40% 1 14.05.2027 -
Ronald Swansea City Actif 117 / 135 40% 1 14.05.2027 -
Joel McGregor Swindon Town Actif 80 / 92 40% 1 13.05.2027 -
Max Bird Birmingham Actif 129 / 133 40% 1 13.05.2027 -
Richard Koné Queens Park Rangers Actif 117 / 122 40% 1 13.05.2027 -
Leo Castledine Middlesbrough Actif 131 / 127 40% 7 11.05.2027 -
Amaury Morales Pumas UNAM Actif 122 / 113 40% 3 10.05.2027 -
Ibrahim Maza Bayer Leverkusen Actif 144 / 154 40% 2 10.05.2027 -
Kauã Elias Anderlecht Actif 127 / 141 40% 2 08.05.2027 -
Maren Kefas Plateau United Actif 77 / 94 40% 1 08.05.2027 -
Juan David Delgado Chernihiv Actif 93 / 94 40% 1 07.05.2027 -
Jair Monteiro Feirense Actif 87 / 94 40% 2 04.05.2027 -
Darlvin Yeboah Bechem United Actif 85 / 83 40% 3 04.05.2027 -
Iwan Morgan Grimsby Town Actif 118 / 121 40% 4 04.05.2027 -
Baba N'Diaye Chelyabinsk Actif 72 / 86 40% 2 03.05.2027 -
Dilan Godoy Vélez Actif 118 / 113 40% 1 03.05.2027 -
Paris Maghoma Norwich City Actif 112 / 117 40% 1 03.05.2027 -
Juan Mosquera Sheffield Wednesday Actif 134 / 131 40% 1 03.05.2027 -
João Capucho Benfica Actif 107 / 103 40% 1 02.05.2027 -
Francisco Fernandes Porto Actif 93 / 98 40% 1 29.04.2027 -
Othmane Maamma Watford Actif 132 / 133 40% 1 29.04.2027 -
Christ Inao Oulaï Fiorentina Actif 145 / 146 40% 1 26.04.2027 -
Rodrigo Mora AS Roma Actif 147 / 136 40% 1 26.04.2027 -
Jayden Addai Como Actif 144 / 128 40% 1 26.04.2027 -
Lévy Néne FC Nordsjaelland Actif 120 / 117 40% 1 22.04.2027 -
Rayan Demirci Porto Actif 83 / 86 40% 2 21.04.2027 -
Tomás Peixoto Porto Actif 84 / 96 40% 2 21.04.2027 -
Rafael Camacho Sporting CP Actif 106 / 99 40% 1 20.04.2027 -
Kelian Baruti Liamba Estoril Praia Actif 105 / 101 40% 2 18.04.2027 -
Hazeem Bakre Crawley Town Actif 77 / 86 40% 3 18.04.2027 -
Jonás Luna Santa Clara Actif 110 / 125 40% 1 18.04.2027 -
Umar Abubakar Famalicao Actif 100 / 85 40% 1 17.04.2027 -
Víctor Guzmán Sporting CP Actif 94 / 94 40% 5 15.04.2027 -
Cédric Nuozzi Alverca Actif 110 / 111 40% 3 15.04.2027 -
David Kalokoh Ajax Actif 113 / 113 40% 2 13.04.2027 -
Gianluca Prestianni Benfica Actif 145 / 146 40% 1 13.04.2027 -
Stevan Manuel Benfica Actif 101 / 110 40% 1 13.04.2027 -
Vasco Santos Oliveirense Actif 94 / 85 40% 2 11.04.2027 -
Lorenzo De Leo Renate Actif 88 / 106 40% 3 10.04.2027 -
Fletcher Holman Swindon Town Actif 75 / 89 40% 3 08.04.2027 -
Anestis Mythou PAOK Actif 82 / 104 40% 1 08.04.2027 -
Ben Ahmed Kohili Paradou Actif 99 / 115 40% 2 06.04.2027 -
Arthur Maron São Paulo Actif 99 / 105 40% 1 05.04.2027 -
Zaïd BafdilI Sporting CP Actif 83 / 105 40% 1 03.04.2027 -
Will Lankshear Middlesbrough Actif 137 / 124 40% 5 30.03.2027 -
Federico Serra Arezzo Actif 85 / 87 40% 1 28.03.2027 -
Salvador Blopá Casa Pia Actif 116 / 115 40% 2 24.03.2027 -
Toni Tamarit Alverca Actif 120 / 115 40% 1 24.03.2027 -
Gabriel Melo Dugopolje Actif 94 / 84 40% 1 24.03.2027 -
João Abreu Porto Actif 82 / 99 40% 1 23.03.2027 -
André Miranda Porto Actif 86 / 104 40% 2 22.03.2027 -
Jayden Luker Barnet Actif 86 / 101 40% 1 22.03.2027 -
Chineme Chinonso Ikorodu City Actif 82 / 101 40% 1 21.03.2027 -
Deivid Washington RC Strasbourg Actif 129 / 116 40% 2 16.03.2027 -
Zack Nelson Bromley Actif 105 / 109 40% 1 09.03.2027 -
Miloš Jovičić Zabbar St. Patrick Actif 79 / 92 40% 1 05.03.2027 -
Dom Ballard Leyton Orient Actif 108 / 122 40% 4 04.03.2027 -
Manuel Kissanga Fortuna Mfou Actif 73 / 99 40% 1 02.03.2027 -
Mathis Jangeal Famalicao Actif 87 / 115 40% 2 01.03.2027 -
Dilan Neves Benfica Actif 69 / 82 40% 1 01.03.2027 -
Oumar Camara Braga Actif 134 / 140 40% 1 28.02.2027 -
Léo Jacó Santa Clara Actif 106 / 103 40% 1 26.02.2027 -
Rocco Vata Watford Actif 115 / 130 40% 2 11.02.2027 -
Leandro Martins Benfica Actif 85 / 100 40% 1 01.02.2027 -
Agustín Fernández NK Zavrc Actif 91 / 100 40% 1 08.01.2027 -
Bruno Gomes Internacional Actif 125 / 130 40% 1 08.12.2026 -
Bright Arrey-Mbi Braga Actif 135 / 139 40% 1 08.12.2026 -
Santi García Gil Vicente Actif 143 / 128 40% 2 30.11.2026 -
Francisco Moura Lusitânia Lourosa Actif 143 / 130 40% 1 30.11.2026 -
Luis Vázquez Birmingham Actif 141 / 124 40% 3 29.11.2026 -
Ianis Stoica Estrela da Amadora Actif 114 / 123 40% 1 28.11.2026 -
André Lacximicant Estoril Praia Actif 111 / 112 40% 1 28.11.2026 -
Figueiredo Alverca Actif 133 / 121 40% 2 27.11.2026 -
Vinícius Lopes Santa Clara Actif 119 / 121 40% 1 27.11.2026 -
Martín Tejón Maritimo Actif 128 / 116 40% 1 27.11.2026 -
Alfonso Trezza Arouca Actif 110 / 116 40% 2 26.11.2026 -
Reda Khadra Qarabag Actif 125 / 129 40% 2 26.11.2026 -
Alejandro Melo Cibalia Actif 129 / 118 40% 1 25.11.2026 -
Bertrand Traoré Sunderland Actif 148 / 126 40% 1 25.11.2026 Plus d'infos
Tom Cannon Sheffield United Actif 137 / 125 40% 3 23.11.2026 -
Duk Atlas Actif 112 / 105 40% 1 22.11.2026 -
Dawda Camara Alverca Actif 124 / 114 40% 2 20.11.2026 -
Armando Broja Burnley Actif 130 / 129 40% 1 19.11.2026 -
Roberto Fernández Braga Actif 130 / 144 40% 1 18.11.2026 -
Carlos Vinícius Grêmio Actif 139 / 130 40% 4 16.11.2026 -
André Silva Tondela Actif 117 / 123 40% 3 16.11.2026 -
Eddie Nketiah Crystal Palace Actif 147 / 146 40% 1 15.11.2026 -
Breel Embolo Atlanta United FC Actif 132 / 147 40% 1 14.11.2026 -
Ramiro Ruiz Rodríguez Atlético Tucumán Actif 120 / 118 40% 2 13.11.2026 -
Vitinho Internacional Actif 123 / 129 40% 1 11.11.2026 -
Beni Mukendi Vitoria Guimaraes Actif 136 / 118 40% 1 10.11.2026 -
Dinis Pinto Moreirense Actif 120 / 122 40% 1 09.11.2026 -
Sead Hakšabanović Malmo FF Actif 128 / 109 40% 1 09.11.2026 -
Romelu Castagne KV Oostende Actif 131 / 137 40% 1 08.11.2026 -
Claudio Spinelli Vasco da Gama Actif 136 / 127 40% 1 08.11.2026 -
Luis Mina Vizela Actif 90 / 114 40% 1 05.11.2026 -
Samuel Lucero Defensa y Justicia Actif 122 / 116 40% 1 05.11.2026 -
Lewis Morgan SuperSport United Actif 117 / 129 40% 1 02.11.2026 -
Jalen Blesa Rio Ave Actif 123 / 123 40% 3 30.10.2026 -
Mésaque Djú Portimonense Actif 110 / 100 40% 1 29.10.2026 -
Antonio Sanabria Internacional Actif 119 / 131 40% 1 28.10.2026 -
Isidro Pitta Bragantino Actif 122 / 126 40% 1 27.10.2026 -
Adnan Courtois KV Oostende Actif 127 / 140 40% 2 26.10.2026 -
Telmo Arcanjo Vitoria Guimaraes Actif 116 / 125 40% 1 24.10.2026 -
Tamble Monteiro Rio Ave Actif 115 / 112 40% 1 22.10.2026 -
Lohann Doucet Vitoria Guimaraes Actif 110 / 120 40% 1 21.10.2026 -
Manuel Ospina Cortulua Actif 118 / 120 40% 1 21.10.2026 -
Vangelis Pavlidis Twente Actif 167 / 146 40% 3 20.10.2026 -
Rodrigo Castillo Fluminense Actif 118 / 127 40% 2 20.10.2026 -
Martim Fernandes Porto Actif 138 / 138 40% 1 20.10.2026 -
Zian Flemming Ipswich Town Actif 131 / 124 40% 1 14.10.2026 -
Mohammed Bouldini Académico de Viseu Actif 112 / 118 40% 1 14.10.2026 -
Yanis Begraoui Estoril Praia Actif 128 / 136 40% 1 13.10.2026 -
Adrián Butzke Maritimo Actif 102 / 90 40% 2 12.10.2026 -
Alexis Cuello San Lorenzo Actif 121 / 123 40% 1 08.10.2026 -
Matías Fernández Independiente Rivadavia Actif 120 / 115 40% 1 05.10.2026 -
Juninho Pumas UNAM Actif 133 / 120 40% 1 05.10.2026 -
Lassina Traoré Shakhtar Actif 115 / 128 40% 1 05.10.2026 -
André Clovis Leiria Actif 133 / 125 40% 1 04.10.2026 -
Rodrigo Zalazar Sporting CP Actif 139 / 139 40% 1 03.10.2026 -
Ole Pohlmann Rio Ave Actif 118 / 121 40% 1 03.10.2026 -
Negueba Mirassol Actif 132 / 128 40% 3 01.10.2026 -
José Manuel López Palmeiras Actif 137 / 130 40% 2 30.09.2026 -
Facundo Colidio Vasco da Gama Actif 139 / 129 40% 1 27.09.2026 -
Josh Sargent Toronto FC Actif 135 / 124 40% 1 27.09.2026 -
Paulo Moreira Farense Actif 134 / 132 40% 1 26.09.2026 -
Juan María Alcedo Torreense Actif 104 / 109 40% 1 26.09.2026 -
Kévin Denkey FC Cincinnati Actif 125 / 131 40% 1 26.09.2026 -
Héctor Hernández Gil Vicente Actif 137 / 126 40% 1 22.09.2026 -
Samuel Anakwe Remo Stars Actif 79 / 102 40% 1 20.09.2026 -
Angel Bastunov Vizela Actif 119 / 114 40% 1 19.09.2026 -
Mateo Cassierra Atlético Mineiro Actif 137 / 126 40% 1 16.09.2026 -
Jhonatan Candia Barracas Central Actif 125 / 125 40% 1 16.09.2026 -
Álvaro Barreal Santos Actif 136 / 125 40% 1 16.09.2026 -
Henrique Araújo Casa Pia Actif 116 / 118 40% 1 13.09.2026 -
Agustín Paz Progreso Actif 117 / 114 40% 1 11.09.2026 -
Wessam Abou Ali Columbus Crew Actif 116 / 130 40% 1 10.09.2026 -
Dominic Calvert-Lewin Leeds United Actif 138 / 142 40% 2 09.09.2026 -
Zeki Amdouni Burnley Actif 120 / 136 40% 1 09.09.2026 -
Jovan Milošević Braga Actif 127 / 133 40% 1 09.09.2026 -
Bénie Traoré New York City Actif 138 / 122 40% 1 08.09.2026 -
Alexandre Duville-Parsemain Moreirense Actif 98 / 114 40% 1 08.09.2026 -
Martín Ojeda Orlando City Actif 123 / 128 40% 1 05.09.2026 -
Morgan Guilavogui Real Salt Lake Actif 130 / 132 40% 1 05.09.2026 -
Jordan Morris Seattle Sounders Actif 113 / 119 40% 1 04.09.2026 -
Gustavo Silva Vitoria Guimaraes Actif 112 / 128 40% 1 02.09.2026 -
Alexander Aravena Portland Timbers Actif 115 / 133 40% 1 02.09.2026 -
Hugo Cuypers Monterrey Actif 142 / 124 40% 1 31.08.2026 -
Petar Musa Adana Demirspor Actif 143 / 133 40% 1 27.08.2026 -
Jesus Ferreira Seattle Sounders Actif 133 / 119 40% 1 26.08.2026 -
Fotis Ioannidis Rio Ave Actif 131 / 131 40% 1 12.08.2026 -
Luis Amarilla Cerro Porteno Actif 131 / 127 40% 1 09.08.2026 -
Raul Steffens AVS Actif 107 / 108 40% 1 07.08.2026 -
Adriel Torreense Actif 121 / 108 40% 1 07.08.2026 -
Facundo Cambeses Racing Club Actif 125 / 125 40% 1 06.08.2026 -
Lucas Paes Torreense Actif 98 / 90 40% 1 05.08.2026 -
Ionuţ Radu Celta Actif 151 / 139 40% 1 05.08.2026 -
Tomás Conechny Racing Club Actif 134 / 121 40% 1 04.08.2026 -
Andriy Lunin Real Madrid Actif 163 / 149 40% 1 02.08.2026 -
Christian Joel Sánchez Leiria Actif 113 / 104 40% 1 02.08.2026 -
Zeno Debast Sporting CP Actif 135 / 132 40% 1 01.08.2026 -